createdAt,value
2018-06-18T00:02:16.700Z,98340.80
2018-06-18T00:04:45.943Z,98341.88
2018-06-18T00:07:15.175Z,98339.73
2018-06-18T00:09:44.402Z,98342.67
2018-06-18T00:12:13.687Z,98339.19
2018-06-18T00:14:42.943Z,98348.59
2018-06-18T00:17:12.199Z,98349.38
2018-06-18T00:19:41.444Z,98342.95
2018-06-18T00:22:14.724Z,98345.09
2018-06-18T00:24:44.020Z,98339.18
2018-06-18T00:27:13.279Z,98338.89
2018-06-18T00:29:42.517Z,98337.03
2018-06-18T00:32:12.111Z,98342.16
2018-06-18T00:34:41.735Z,98344.86
2018-06-18T00:37:10.711Z,98338.39
2018-06-18T00:39:39.935Z,98344.56
2018-06-18T00:42:09.132Z,98340.81
2018-06-18T00:44:38.428Z,98344.30
2018-06-18T00:47:07.640Z,98349.70
2018-06-18T00:49:36.938Z,98344.58
2018-06-18T00:52:06.195Z,98352.38
2018-06-18T00:54:35.419Z,98351.31
2018-06-18T00:57:04.870Z,98349.42
2018-06-18T00:59:34.111Z,98347.54
2018-06-18T01:02:03.308Z,98344.02
2018-06-18T01:04:32.576Z,98339.45
2018-06-18T01:07:01.774Z,98339.98
2018-06-18T01:09:31.006Z,98338.64
2018-06-18T01:12:00.220Z,98338.91
2018-06-18T01:14:29.181Z,98346.97
2018-06-18T01:16:58.500Z,98344.56
2018-06-18T01:19:27.731Z,98342.41
2018-06-18T01:21:56.714Z,98334.89
2018-06-18T01:24:38.264Z,98333.53
2018-06-18T01:27:07.609Z,98335.95
2018-06-18T01:29:36.899Z,98344.82
2018-06-18T01:32:06.203Z,98342.41
2018-06-18T01:34:35.439Z,98344.83
2018-06-18T01:37:04.722Z,98345.64
2018-06-18T01:39:33.683Z,98342.66
2018-06-18T01:42:02.935Z,98345.35
2018-06-18T01:44:32.138Z,98352.63
2018-06-18T01:47:01.363Z,98351.55
2018-06-18T01:49:30.577Z,98352.34
2018-06-18T01:51:59.827Z,98359.59
2018-06-18T01:54:29.049Z,98350.19
2018-06-18T01:56:58.286Z,98346.20
2018-06-18T01:59:27.506Z,98339.46
2018-06-18T02:01:57.131Z,98336.77
2018-06-18T02:04:26.670Z,98334.06
2018-06-18T02:06:55.910Z,98333.82
2018-06-18T02:09:25.200Z,98328.98
2018-06-18T02:11:54.498Z,98323.05
2018-06-18T02:14:23.772Z,98327.63
2018-06-18T02:16:53.031Z,98330.30
2018-06-18T02:19:22.346Z,98341.07
2018-06-18T02:21:51.357Z,98347.77
2018-06-18T02:24:20.585Z,98350.48
2018-06-18T02:26:53.903Z,98354.50
2018-06-18T02:29:28.484Z,98359.59
2018-06-18T02:33:04.523Z,98353.97
2018-06-18T02:35:39.087Z,98345.09
2018-06-18T02:38:13.674Z,98355.56
2018-06-18T02:40:47.718Z,98359.85
2018-06-18T02:43:18.118Z,98352.88
2018-06-18T02:45:47.553Z,98355.02
2018-06-18T02:48:16.774Z,98352.62
2018-06-18T02:50:46.025Z,98357.45
2018-06-18T02:53:15.252Z,98347.77
2018-06-18T02:55:47.271Z,98345.10
2018-06-18T02:58:16.252Z,98345.63
2018-06-18T03:00:45.463Z,98346.69
2018-06-18T03:03:14.438Z,98347.77
2018-06-18T03:05:43.668Z,98350.19
2018-06-18T03:08:12.927Z,98350.72
2018-06-18T03:10:42.102Z,98353.16
2018-06-18T03:13:11.315Z,98348.86
2018-06-18T03:15:40.550Z,98351.00
2018-06-18T03:18:13.865Z,98348.83
2018-06-18T03:20:48.387Z,98353.16
2018-06-18T03:23:22.950Z,98344.81
2018-06-18T03:25:57.338Z,98335.94
2018-06-18T03:28:31.680Z,98331.66
2018-06-18T03:31:00.899Z,98333.53
2018-06-18T03:33:30.214Z,98354.73
2018-06-18T03:35:59.468Z,98367.63
2018-06-18T03:38:28.722Z,98374.36
2018-06-18T03:40:57.941Z,98368.73
2018-06-18T03:43:27.520Z,98359.84
2018-06-18T03:45:56.732Z,98368.73
2018-06-18T03:48:25.992Z,98364.69
2018-06-18T03:50:55.211Z,98373.02
2018-06-18T03:53:24.473Z,98375.16
2018-06-18T03:55:57.913Z,98377.87
2018-06-18T03:58:27.212Z,98376.25
2018-06-18T04:03:25.945Z,98373.85
2018-06-18T04:06:01.012Z,98362.28
2018-06-18T04:08:30.269Z,98362.00
2018-06-18T04:11:04.843Z,98369.00
2018-06-18T04:13:34.071Z,98377.34
2018-06-18T04:16:03.318Z,98374.38
2018-06-18T04:18:32.618Z,98375.72
2018-06-18T04:21:01.840Z,98371.95
2018-06-18T04:23:31.097Z,98376.23
2018-06-18T04:26:00.121Z,98376.76
2018-06-18T04:28:29.340Z,98373.55
2018-06-18T04:30:58.603Z,98370.30
2018-06-18T04:33:28.982Z,98376.78
2018-06-18T04:35:58.247Z,98385.65
2018-06-18T04:38:27.574Z,98388.61
2018-06-18T04:40:56.803Z,98388.34
2018-06-18T04:44:28.747Z,98385.08
2018-06-18T04:48:04.781Z,98382.23
2018-06-18T04:50:39.324Z,98373.16
2018-06-18T04:53:08.538Z,98383.63
2018-06-18T04:55:37.820Z,98394.42
2018-06-18T04:58:07.221Z,98390.33
2018-06-18T05:00:51.589Z,98387.86
2018-06-18T05:03:20.799Z,98393.66
2018-06-18T05:05:50.088Z,98398.80
2018-06-18T05:08:52.723Z,98393.78
2018-06-18T05:11:21.975Z,98390.27
2018-06-18T05:13:51.319Z,98396.77
2018-06-18T05:16:20.716Z,98400.81
2018-06-18T05:18:50.145Z,98405.08
2018-06-18T05:21:19.553Z,98406.02
2018-06-18T05:23:48.809Z,98407.87
2018-06-18T05:26:18.545Z,98409.58
2018-06-18T05:28:47.771Z,98406.10
2018-06-18T05:31:17.031Z,98407.13
2018-06-18T05:33:46.408Z,98416.83
2018-06-18T05:36:15.445Z,98417.09
2018-06-18T05:38:44.747Z,98416.02
2018-06-18T05:41:14.011Z,98415.50
2018-06-18T05:43:43.223Z,98413.45
2018-06-18T05:46:12.555Z,98417.28
2018-06-18T05:48:41.947Z,98418.11
2018-06-18T05:51:11.319Z,98420.83
2018-06-18T05:53:40.714Z,98427.95
2018-06-18T05:56:10.102Z,98426.66
2018-06-18T05:58:39.380Z,98442.08
2018-06-18T06:01:08.703Z,98425.42
2018-06-18T06:03:37.958Z,98425.31
2018-06-18T06:06:07.484Z,98428.62
2018-06-18T06:08:36.833Z,98434.96
2018-06-18T06:11:06.665Z,98439.47
2018-06-18T06:13:35.862Z,98436.06
2018-06-18T06:16:05.428Z,98432.83
2018-06-18T06:18:34.945Z,98437.63
2018-06-18T06:21:08.094Z,98430.86
2018-06-18T06:23:37.451Z,98426.70
2018-06-18T06:26:06.877Z,98430.64
2018-06-18T06:28:36.239Z,98433.50
2018-06-18T06:31:05.675Z,98429.41
2018-06-18T06:33:35.578Z,98431.60
2018-06-18T06:36:06.488Z,98433.59
2018-06-18T06:38:36.009Z,98437.19
2018-06-18T06:41:05.942Z,98443.63
2018-06-18T06:43:35.419Z,98440.92
2018-06-18T06:46:04.772Z,98448.36
2018-06-18T06:48:34.348Z,98445.47
2018-06-18T06:51:03.771Z,98450.42
2018-06-18T06:53:33.166Z,98449.33
2018-06-18T06:56:02.583Z,98448.70
2018-06-18T06:58:32.036Z,98455.08
2018-06-18T07:01:01.431Z,98450.25
2018-06-18T07:03:30.832Z,98458.01
2018-06-18T07:06:00.246Z,98451.31
2018-06-18T07:08:29.715Z,98449.60
2018-06-18T07:10:59.040Z,98452.03
2018-06-18T07:13:28.472Z,98455.69
2018-06-18T07:16:02.590Z,98449.83
2018-06-18T07:18:32.091Z,98458.38
2018-06-18T07:21:01.441Z,98454.46
2018-06-18T07:23:30.977Z,98455.00
2018-06-18T07:26:00.363Z,98455.26
2018-06-18T07:28:29.792Z,98455.75
2018-06-18T07:30:59.169Z,98453.06
2018-06-18T07:33:28.460Z,98453.10
2018-06-18T07:35:57.848Z,98444.70
2018-06-18T07:38:27.342Z,98449.33
2018-06-18T07:40:56.725Z,98447.38
2018-06-18T07:43:26.211Z,98442.62
2018-06-18T07:45:55.776Z,98442.36
2018-06-18T07:48:25.287Z,98442.20
2018-06-18T07:50:54.839Z,98442.58
2018-06-18T07:53:24.204Z,98446.77
2018-06-18T07:55:53.650Z,98449.37
2018-06-18T07:58:23.321Z,98450.02
2018-06-18T08:00:52.730Z,98450.73
2018-06-18T08:03:22.375Z,98446.70
2018-06-18T08:05:51.859Z,98446.28
2018-06-18T08:08:21.567Z,98446.14
2018-06-18T08:10:50.769Z,98456.70
2018-06-18T08:13:20.341Z,98450.34
2018-06-18T08:15:50.500Z,98450.80
2018-06-18T08:18:20.104Z,98455.95
2018-06-18T08:20:49.707Z,98450.80
2018-06-18T08:23:19.135Z,98445.48
2018-06-18T08:25:48.513Z,98455.81
2018-06-18T08:28:17.980Z,98453.23
2018-06-18T08:30:47.404Z,98457.29
2018-06-18T08:33:16.965Z,98459.54
2018-06-18T08:35:46.486Z,98461.84
2018-06-18T08:38:15.849Z,98469.17
2018-06-18T08:40:45.050Z,98473.78
2018-06-18T08:43:14.613Z,98473.62
2018-06-18T08:45:44.007Z,98469.02
2018-06-18T08:48:17.631Z,98454.19
2018-06-18T08:50:52.330Z,98469.53
2018-06-18T08:53:27.119Z,98463.13
2018-06-18T08:56:01.744Z,98461.30
2018-06-18T08:58:36.370Z,98457.72
2018-06-18T09:01:18.233Z,98460.91
2018-06-18T09:03:57.877Z,98463.41
2018-06-18T09:06:27.265Z,98465.29
2018-06-18T09:08:57.877Z,98468.14
2018-06-18T09:11:27.814Z,98465.43
2018-06-18T09:13:57.184Z,98469.86
2018-06-18T09:16:26.850Z,98463.02
2018-06-18T09:18:56.299Z,98471.17
2018-06-18T09:21:25.857Z,98473.89
2018-06-18T09:23:55.337Z,98471.20
2018-06-18T09:26:25.109Z,98476.78
2018-06-18T09:28:54.570Z,98473.23
2018-06-18T09:31:24.004Z,98476.58
2018-06-18T09:33:53.405Z,98469.47
2018-06-18T09:36:22.733Z,98475.83
2018-06-18T09:38:52.358Z,98470.13
2018-06-18T09:41:21.868Z,98466.78
2018-06-18T09:43:51.290Z,98472.98
2018-06-18T09:46:20.795Z,98467.08
2018-06-18T09:49:01.983Z,98460.20
2018-06-18T09:51:36.385Z,98459.33
2018-06-18T09:54:10.918Z,98463.70
2018-06-18T09:56:45.477Z,98458.06
2018-06-18T09:59:20.303Z,98459.97
2018-06-18T10:01:49.907Z,98456.91
2018-06-18T10:04:19.605Z,98458.57
2018-06-18T10:06:49.087Z,98459.32
2018-06-18T10:09:18.688Z,98449.25
2018-06-18T10:11:48.144Z,98447.73
2018-06-18T10:14:17.562Z,98449.19
2018-06-18T10:16:47.151Z,98450.38
2018-06-18T10:19:16.520Z,98449.98
2018-06-18T10:21:46.030Z,98452.55
2018-06-18T10:24:15.437Z,98455.13
2018-06-18T10:26:44.761Z,98449.23
2018-06-18T10:29:14.210Z,98451.05
2018-06-18T10:31:43.784Z,98454.78
2018-06-18T10:34:18.186Z,98447.64
2018-06-18T10:36:52.509Z,98447.89
2018-06-18T10:39:27.042Z,98446.91
2018-06-18T10:42:01.783Z,98427.34
2018-06-18T10:44:31.174Z,98438.81
2018-06-18T10:47:00.503Z,98440.25
2018-06-18T10:49:29.883Z,98442.08
2018-06-18T10:51:59.260Z,98443.30
2018-06-18T10:54:29.643Z,98435.66
2018-06-18T10:56:59.075Z,98434.58
2018-06-18T10:59:28.405Z,98426.53
2018-06-18T11:01:57.677Z,98433.03
2018-06-18T11:04:30.606Z,98442.89
2018-06-18T11:07:00.084Z,98447.87
2018-06-18T11:09:29.395Z,98447.61
2018-06-18T11:11:58.652Z,98447.68
2018-06-18T11:14:28.027Z,98445.38
2018-06-18T11:17:02.873Z,98435.91
2018-06-18T11:20:02.868Z,98430.41
2018-06-18T11:22:37.535Z,98426.16
2018-06-18T11:25:12.098Z,98431.75
2018-06-18T11:27:41.448Z,98441.41
2018-06-18T11:30:10.795Z,98439.91
2018-06-18T11:32:40.200Z,98427.98
2018-06-18T11:35:09.721Z,98427.83
2018-06-18T11:37:39.007Z,98430.52
2018-06-18T11:40:08.410Z,98428.00
2018-06-18T11:42:37.714Z,98422.68
2018-06-18T11:45:07.111Z,98419.89
2018-06-18T11:47:36.464Z,98419.05
2018-06-18T11:50:05.713Z,98419.27
2018-06-18T11:52:35.110Z,98415.89
2018-06-18T11:55:04.498Z,98421.13
2018-06-18T11:57:33.908Z,98425.92
2018-06-18T12:00:08.440Z,98419.61
2018-06-18T12:02:43.083Z,98417.50
2018-06-18T12:05:17.699Z,98410.69
2018-06-18T12:07:52.719Z,98406.67
2018-06-18T12:10:22.790Z,98407.02
2018-06-18T12:12:52.860Z,98407.37
2018-06-18T12:15:23.649Z,98404.55
2018-06-18T12:17:53.707Z,98408.75
2018-06-18T12:20:23.968Z,98404.11
2018-06-18T12:22:54.259Z,98410.45
2018-06-18T12:25:25.097Z,98409.69
2018-06-18T12:27:55.207Z,98395.41
2018-06-18T12:30:25.369Z,98395.27
2018-06-18T12:39:55.375Z,98391.84
2018-06-18T12:42:42.604Z,98393.16
2018-06-18T12:45:19.522Z,98380.03
2018-06-18T12:47:54.092Z,98389.61
2018-06-18T12:50:28.869Z,98393.69
2018-06-18T12:53:03.392Z,98387.50
2018-06-18T12:55:37.907Z,98393.01
2018-06-18T12:58:22.056Z,98382.18
2018-06-18T13:04:30.177Z,98392.67
2018-06-18T13:07:08.654Z,98392.91
2018-06-18T13:09:56.290Z,98400.61
2018-06-18T13:12:39.842Z,98398.03
2018-06-18T13:15:09.323Z,98400.77
2018-06-18T13:17:38.491Z,98389.62
2018-06-18T13:20:07.618Z,98395.89
2018-06-18T13:22:37.043Z,98393.39
2018-06-18T13:25:06.578Z,98395.03
2018-06-18T13:27:41.204Z,98401.20
2018-06-18T13:30:10.599Z,98404.38
2018-06-18T13:32:39.984Z,98404.89
2018-06-18T13:35:09.363Z,98391.60
2018-06-18T13:37:44.064Z,98398.59
2018-06-18T13:40:18.662Z,98397.58
2018-06-18T13:42:53.280Z,98403.68
2018-06-18T13:45:27.958Z,98394.09
2018-06-18T13:48:02.589Z,98398.71
2018-06-18T13:50:31.910Z,98394.37
2018-06-18T13:53:01.229Z,98393.11
2018-06-18T13:55:30.579Z,98393.25
2018-06-18T13:57:59.636Z,98392.84
2018-06-18T14:00:29.056Z,98389.97
2018-06-18T14:02:58.356Z,98385.00
2018-06-18T14:05:27.709Z,98387.31
2018-06-18T14:07:57.684Z,98392.86
2018-06-18T14:10:27.051Z,98394.40
2018-06-18T14:12:56.456Z,98401.67
2018-06-18T14:15:25.734Z,98389.22
2018-06-18T14:17:55.076Z,98391.19
2018-06-18T14:20:28.305Z,98390.63
2018-06-18T14:22:57.630Z,98379.77
2018-06-18T14:25:26.974Z,98386.22
2018-06-18T14:27:56.381Z,98381.54
2018-06-18T14:30:31.062Z,98385.09
2018-06-18T14:33:05.753Z,98389.59
2018-06-18T14:35:40.182Z,98371.02
2018-06-18T14:38:14.780Z,98381.81
2018-06-18T14:40:43.995Z,98382.07
2018-06-18T14:43:13.298Z,98386.61
2018-06-18T14:45:42.623Z,98377.98
2018-06-18T14:48:12.048Z,98378.14
2018-06-18T14:50:41.386Z,98379.97
2018-06-18T14:53:10.777Z,98380.50
2018-06-18T14:55:40.099Z,98378.08
2018-06-18T14:58:09.438Z,98376.60
2018-06-18T15:00:38.887Z,98381.16
2018-06-18T15:03:08.170Z,98383.52
2018-06-18T15:05:40.343Z,98378.18
2018-06-18T15:08:09.640Z,98382.40
2018-06-18T15:10:44.275Z,98386.48
2018-06-18T15:13:15.063Z,98385.73
2018-06-18T15:15:49.793Z,98387.39
2018-06-18T15:18:19.669Z,98390.44
2018-06-18T15:20:49.394Z,98389.67
2018-06-18T15:23:18.803Z,98384.16
2018-06-18T15:25:50.966Z,98386.03
2018-06-18T15:28:20.476Z,98385.13
2018-06-18T15:30:49.861Z,98389.27
2018-06-18T15:33:19.270Z,98384.02
2018-06-18T15:35:48.647Z,98381.52
2018-06-18T15:38:18.044Z,98373.75
2018-06-18T15:40:47.312Z,98372.54
2018-06-18T15:43:16.655Z,98373.10
2018-06-18T15:45:46.029Z,98366.55
2018-06-18T15:48:15.366Z,98383.58
2018-06-18T15:50:44.715Z,98374.80
2018-06-18T15:53:14.083Z,98370.77
2018-06-18T15:55:43.654Z,98374.22
2018-06-18T15:58:13.201Z,98370.94
2018-06-18T16:00:42.693Z,98379.10
2018-06-18T16:03:12.302Z,98377.34
2018-06-18T16:05:41.803Z,98375.95
2018-06-18T16:08:10.926Z,98373.05
2018-06-18T16:10:40.338Z,98383.36
2018-06-18T16:13:09.778Z,98377.78
2018-06-18T16:15:39.192Z,98384.48
2018-06-18T16:18:08.583Z,98376.58
2018-06-18T16:20:37.948Z,98385.35
2018-06-18T16:23:07.427Z,98381.27
2018-06-18T16:25:36.807Z,98381.48
2018-06-18T16:28:06.447Z,98378.71
2018-06-18T16:30:35.767Z,98383.15
2018-06-18T16:33:05.523Z,98394.30
2018-06-18T16:35:34.921Z,98395.03
2018-06-18T16:38:04.324Z,98395.34
2018-06-18T16:40:34.053Z,98395.09
2018-06-18T16:43:04.480Z,98393.00
2018-06-18T16:45:34.164Z,98393.58
2018-06-18T16:48:03.655Z,98394.86
2018-06-18T16:50:33.165Z,98392.33
2018-06-18T16:53:02.561Z,98398.75
2018-06-18T16:55:32.003Z,98396.23
2018-06-18T16:58:01.073Z,98403.19
2018-06-18T17:00:30.366Z,98403.48
2018-06-18T17:02:59.721Z,98399.77
2018-06-18T17:05:29.026Z,98402.44
2018-06-18T17:07:58.270Z,98403.38
2018-06-18T17:10:27.571Z,98400.42
2018-06-18T17:12:56.854Z,98405.05
2018-06-18T17:15:26.110Z,98398.91
2018-06-18T17:17:55.875Z,98402.42
2018-06-18T17:20:24.891Z,98406.92
2018-06-18T17:22:54.341Z,98401.25
2018-06-18T17:25:23.663Z,98406.91
2018-06-18T17:27:53.078Z,98405.23
2018-06-18T17:30:22.953Z,98409.60
2018-06-18T17:32:52.367Z,98403.47
2018-06-18T17:35:21.669Z,98419.19
2018-06-18T17:37:51.023Z,98410.75
2018-06-18T17:40:20.477Z,98415.70
2018-06-18T17:42:49.850Z,98418.14
2018-06-18T17:45:19.149Z,98423.38
2018-06-18T17:47:48.480Z,98419.34
2018-06-18T17:50:17.837Z,98418.64
2018-06-18T17:52:47.074Z,98417.21
2018-06-18T17:55:16.381Z,98431.81
2018-06-18T17:57:45.402Z,98415.43
2018-06-18T18:00:14.673Z,98419.30
2018-06-18T18:02:44.100Z,98417.95
2018-06-18T18:05:13.499Z,98419.75
2018-06-18T18:07:42.893Z,98415.45
2018-06-18T18:10:12.215Z,98412.50
2018-06-18T18:12:41.474Z,98414.49
2018-06-18T18:15:10.768Z,98407.81
2018-06-18T18:17:40.079Z,98412.05
2018-06-18T18:20:09.131Z,98410.46
2018-06-18T18:22:38.459Z,98412.47
2018-06-18T18:25:07.487Z,98414.23
2018-06-18T18:27:36.825Z,98405.30
2018-06-18T18:30:06.169Z,98406.05
2018-06-18T18:32:35.450Z,98411.91
2018-06-18T18:35:04.872Z,98406.83
2018-06-18T18:37:34.215Z,98405.13
2018-06-18T18:40:03.663Z,98408.31
2018-06-18T18:42:33.107Z,98408.66
2018-06-18T18:45:02.414Z,98410.11
2018-06-18T18:47:31.695Z,98406.44
2018-06-18T18:50:00.983Z,98403.32
2018-06-18T18:52:30.353Z,98402.12
2018-06-18T18:55:44.347Z,98404.06
2018-06-18T18:58:30.379Z,98410.97
2018-06-18T19:00:59.685Z,98415.89
2018-06-18T19:03:30.183Z,98419.50
2018-06-18T19:06:00.603Z,98422.02
2018-06-18T19:08:32.081Z,98425.92
2018-06-18T19:11:03.958Z,98425.18
2018-06-18T19:13:36.268Z,98428.80
2018-06-18T19:16:06.182Z,98431.77
2018-06-18T19:18:36.928Z,98429.12
2018-06-18T19:21:09.370Z,98431.37
2018-06-18T19:23:39.039Z,98432.30
2018-06-18T19:26:08.362Z,98431.59
2018-06-18T19:28:38.238Z,98434.16
2018-06-18T19:31:13.046Z,98443.39
2018-06-18T19:34:19.052Z,98446.98
2018-06-18T19:36:51.208Z,98444.89
2018-06-18T19:39:21.649Z,98457.42
2018-06-18T19:41:50.698Z,98460.44
2018-06-18T19:44:20.159Z,98460.25
2018-06-18T19:48:04.402Z,98463.05
2018-06-18T19:50:33.819Z,98462.89
2018-06-18T19:53:03.136Z,98468.02
2018-06-18T19:55:34.047Z,98471.28
2018-06-18T19:58:03.459Z,98473.27
2018-06-18T20:00:47.368Z,98486.50
2018-06-18T20:03:16.682Z,98486.23
2018-06-18T20:05:46.907Z,98487.55
2018-06-18T20:08:21.018Z,98488.15
2018-06-18T20:10:50.559Z,98495.21
2018-06-18T20:13:19.929Z,98495.82
2018-06-18T20:15:49.334Z,98495.59
2018-06-18T20:18:18.663Z,98499.45
2018-06-18T20:20:47.941Z,98504.30
2018-06-18T20:23:20.358Z,98501.92
2018-06-18T20:26:21.041Z,98509.25
2018-06-18T20:28:50.591Z,98509.55
2018-06-18T20:31:20.026Z,98510.67
2018-06-18T20:33:53.330Z,98511.20
2018-06-18T20:36:24.205Z,98510.42
2018-06-18T20:38:53.563Z,98518.74
2018-06-18T20:41:23.552Z,98514.17
2018-06-18T20:44:19.246Z,98510.13
2018-06-18T20:46:48.553Z,98514.72
2018-06-18T20:49:17.883Z,98515.25
2018-06-18T20:51:47.237Z,98506.38
2018-06-18T20:58:04.818Z,98510.16
2018-06-18T21:00:34.122Z,98508.27
2018-06-18T21:03:03.423Z,98516.88
2018-06-18T21:05:32.699Z,98512.86
2018-06-18T21:08:01.998Z,98512.03
2018-06-18T21:10:31.224Z,98509.89
2018-06-18T21:13:00.499Z,98495.92
2018-06-18T21:15:29.850Z,98513.66
2018-06-18T21:17:59.202Z,98520.92
2018-06-18T21:20:29.028Z,98520.38
2018-06-18T21:22:58.321Z,98521.72
2018-06-18T21:25:27.583Z,98523.88
2018-06-18T21:27:56.843Z,98519.05
2018-06-18T21:30:26.079Z,98517.97
2018-06-18T21:32:55.326Z,98512.29
2018-06-18T21:35:24.635Z,98515.79
2018-06-18T21:37:53.966Z,98521.17
2018-06-18T21:40:23.330Z,98518.20
2018-06-18T21:42:52.674Z,98521.70
2018-06-18T21:45:24.784Z,98525.19
2018-06-18T21:47:55.838Z,98524.92
2018-06-18T21:50:25.109Z,98528.16
2018-06-18T21:52:54.340Z,98527.61
2018-06-18T21:55:23.723Z,98518.73
2018-06-18T21:57:53.135Z,98522.50
2018-06-18T22:00:29.625Z,98519.52
2018-06-18T22:02:58.901Z,98524.91
2018-06-18T22:05:28.223Z,98536.42
2018-06-18T22:07:57.592Z,98530.50
2018-06-18T22:10:26.777Z,98528.06
2018-06-18T22:12:56.078Z,98526.14
2018-06-18T22:15:25.395Z,98524.25
2018-06-18T22:17:54.649Z,98525.06
2018-06-18T22:20:23.917Z,98521.57
2018-06-18T22:22:53.288Z,98521.29
2018-06-18T22:25:22.555Z,98526.39
2018-06-18T22:27:51.879Z,98527.70
2018-06-18T22:30:21.275Z,98529.30
2018-06-18T22:32:50.687Z,98526.05
2018-06-18T22:35:19.987Z,98523.63
2018-06-18T22:37:49.340Z,98530.08
2018-06-18T22:40:18.606Z,98526.59
2018-06-18T22:42:47.859Z,98531.12
2018-06-18T22:45:17.210Z,98531.33
2018-06-18T22:47:46.458Z,98528.12
2018-06-18T22:50:15.728Z,98520.03
2018-06-18T22:52:44.967Z,98511.70
2018-06-18T22:55:14.236Z,98521.34
2018-06-18T22:57:43.473Z,98514.59
2018-06-18T23:00:12.731Z,98529.11
2018-06-18T23:02:41.939Z,98528.30
2018-06-18T23:05:11.260Z,98515.61
2018-06-18T23:07:40.531Z,98526.59
2018-06-18T23:10:09.773Z,98514.65
2018-06-18T23:12:42.431Z,98520.30
2018-06-18T23:15:13.225Z,98517.90
2018-06-18T23:17:42.467Z,98513.55
2018-06-18T23:20:11.695Z,98511.68
2018-06-18T23:22:41.091Z,98520.78
2018-06-18T23:25:10.360Z,98516.71
2018-06-18T23:27:39.394Z,98519.05
2018-06-18T23:30:08.652Z,98519.38
2018-06-18T23:32:37.891Z,98520.69
2018-06-18T23:35:06.912Z,98517.95
2018-06-18T23:37:36.167Z,98516.56
2018-06-18T23:40:05.467Z,98520.86
2018-06-18T23:42:34.711Z,98518.67
2018-06-18T23:45:03.954Z,98529.63
2018-06-18T23:47:33.160Z,98530.97
2018-06-18T23:50:02.423Z,98527.70
2018-06-18T23:52:31.649Z,98529.09
2018-06-18T23:55:00.884Z,98532.81
2018-06-18T23:57:29.897Z,98534.11
2018-06-18T23:59:59.190Z,98542.66
